KAVL

Asheville Regional Airport

Asheville, North Carolina, USA
METAR KAVL 181454Z 35014KT 10SM CLR M08/M16 A3035 RMK AO2 PK WND 34034/1402 SLP306 T10781156 53017
Observed Flight Rules
Jan-18 @ 14:54 UTC (34 minutes ago) Visual Flight Rules
Wind Visibility Clouds
350° at 14 knots 10 miles
  • Clear skies
Temperatures Readings
Current -8°C / 18°F
Dewpoint -16°C / 3°F
Humidity 53%
Altimeter 30.35" Hg
Pressure 1030.6 hPa
Elevation 670
METAR KAVL 181454Z 35014KT 10SM CLR M08/M16 A3035 RMK AO2 PK WND 34034/1402 SLP306 T10781156 53017
Observed Flight Rules
Jan-18 @ 14:54 UTC
(34 minutes ago)
VFR
Wind Visibility
350° at 14 knots 10 miles
Clouds
  • Clear skies
Temperature Dewpoint
-8°C / 18°F -16°C / 3°F
Humidity Altimeter Pressure
53% 30.35" Hg 1030.6 hPa